Time;durP1;ratioP1;P1;durP2;ratioP2;P2;SDS_P1;SDS_P2;PMS_P1;PMS_P2;Temp;Humidity;BMP_temperature;BMP_pressure;BME280_temperature;BME280_humidity;BME280_pressure;Samples;Min_cycle;Max_cycle;Signal;HPM_P1;HPM_P2
2020/12/07 00:00:08;;;;;;;30.37;24.57;;;7.10;99.90;;;;;;5015250;28;20683;-64
2020/12/07 00:02:53;;;;;;;32.10;24.40;;;7.10;99.90;;;;;;5009416;28;20584;-65
2020/12/07 00:05:37;;;;;;;30.93;23.40;;;7.10;99.90;;;;;;5000437;28;21252;-65
2020/12/07 00:08:22;;;;;;;33.77;25.63;;;7.10;99.90;;;;;;5002351;28;20658;-65
2020/12/07 00:11:13;;;;;;;29.77;23.40;;;7.20;99.90;;;;;;4992595;28;21210;-64
2020/12/07 00:13:59;;;;;;;29.80;23.53;;;7.20;99.90;;;;;;4980212;28;20673;-65
2020/12/07 00:16:47;;;;;;;29.60;23.37;;;7.20;99.90;;;;;;5001087;28;20612;-65
2020/12/07 00:19:32;;;;;;;28.87;24.70;;;7.20;99.90;;;;;;5004301;28;20906;-65
2020/12/07 00:22:35;;;;;;;28.43;22.70;;;7.20;99.90;;;;;;5013966;28;20709;-65
2020/12/07 00:25:20;;;;;;;32.10;23.73;;;7.10;99.90;;;;;;5005156;28;20663;-65
2020/12/07 00:28:04;;;;;;;29.13;23.10;;;7.20;99.90;;;;;;4999811;28;20650;-64
2020/12/07 00:30:49;;;;;;;28.63;23.03;;;7.20;99.90;;;;;;5010846;28;20765;-65
2020/12/07 00:33:33;;;;;;;29.77;22.60;;;7.20;99.90;;;;;;5021234;28;20972;-65
2020/12/07 00:36:18;;;;;;;33.80;25.00;;;7.20;99.90;;;;;;5004290;28;20636;-65
2020/12/07 00:39:03;;;;;;;31.00;23.00;;;7.20;99.90;;;;;;5005332;28;21129;-65
2020/12/07 00:41:47;;;;;;;30.70;23.77;;;7.20;99.90;;;;;;4995333;28;21252;-65
2020/12/07 00:44:32;;;;;;;29.93;23.80;;;7.20;99.90;;;;;;5010547;28;20758;-65
2020/12/07 00:47:16;;;;;;;29.17;23.83;;;7.20;99.90;;;;;;4999001;28;20731;-65
2020/12/07 00:50:00;;;;;;;27.60;23.33;;;7.20;99.90;;;;;;4996699;28;20776;-65
2020/12/07 00:52:45;;;;;;;32.00;24.80;;;7.20;99.90;;;;;;5010601;28;20576;-64
2020/12/07 00:55:29;;;;;;;30.67;23.43;;;7.20;99.90;;;;;;5001513;28;20700;-65
2020/12/07 00:58:14;;;;;;;30.90;23.30;;;7.20;99.90;;;;;;5003528;28;20627;-65
2020/12/07 01:01:02;;;;;;;31.40;23.60;;;7.20;99.90;;;;;;5009137;28;20775;-65
2020/12/07 01:03:46;;;;;;;26.77;21.80;;;7.20;99.90;;;;;;4991616;28;20731;-65
2020/12/07 01:06:32;;;;;;;27.93;22.03;;;7.10;99.90;;;;;;4993210;28;21004;-64
2020/12/07 01:09:18;;;;;;;28.57;22.73;;;7.20;99.90;;;;;;4994622;28;20945;-64
2020/12/07 01:12:02;;;;;;;27.33;22.63;;;7.20;99.90;;;;;;4994274;28;20591;-65
2020/12/07 01:14:49;;;;;;;28.93;22.10;;;7.20;99.90;;;;;;4994364;28;20870;-65
2020/12/07 01:17:33;;;;;;;25.37;21.10;;;7.20;99.90;;;;;;4996743;28;20591;-64
2020/12/07 01:20:21;;;;;;;28.27;21.90;;;7.20;99.90;;;;;;4991887;28;20640;-64
2020/12/07 01:23:06;;;;;;;26.23;19.63;;;7.20;99.90;;;;;;5002952;28;20660;-65
2020/12/07 01:25:51;;;;;;;27.90;21.63;;;7.20;99.90;;;;;;4995574;28;20596;-64
2020/12/07 01:28:35;;;;;;;25.70;20.83;;;7.20;99.90;;;;;;5004256;28;20701;-65
2020/12/07 01:31:20;;;;;;;28.13;21.80;;;7.20;99.90;;;;;;5003162;28;20683;-64
2020/12/07 01:34:04;;;;;;;25.17;20.67;;;7.20;99.90;;;;;;5004978;28;20675;-65
2020/12/07 01:36:49;;;;;;;25.53;20.23;;;7.20;99.90;;;;;;5006548;28;20668;-65
2020/12/07 01:39:33;;;;;;;26.67;21.17;;;7.20;99.90;;;;;;5000981;28;20592;-65
2020/12/07 01:42:19;;;;;;;26.70;20.20;;;7.20;99.90;;;;;;5005763;28;20973;-64
2020/12/07 01:45:04;;;;;;;25.07;19.80;;;7.20;99.90;;;;;;4996451;28;21218;-65
2020/12/07 01:47:48;;;;;;;28.60;21.67;;;7.20;99.90;;;;;;5005803;28;20794;-64
2020/12/07 01:50:33;;;;;;;25.63;20.40;;;7.20;99.90;;;;;;4999128;28;20994;-65
2020/12/07 01:53:18;;;;;;;25.37;19.97;;;7.30;99.90;;;;;;5006771;28;20619;-65
2020/12/07 01:56:04;;;;;;;25.43;21.40;;;7.20;99.90;;;;;;5002218;28;20567;-65
2020/12/07 01:58:49;;;;;;;25.07;19.60;;;7.20;99.90;;;;;;5007599;28;20615;-65
2020/12/07 02:01:36;;;;;;;26.73;20.87;;;7.30;99.90;;;;;;5005962;28;20642;-64
2020/12/07 02:04:21;;;;;;;25.07;20.30;;;7.30;99.90;;;;;;5023832;28;21232;-65
2020/12/07 02:07:05;;;;;;;25.17;20.90;;;7.30;99.90;;;;;;5012119;28;20789;-65
2020/12/07 02:09:50;;;;;;;23.63;19.53;;;7.30;99.90;;;;;;4999256;28;21196;-65
2020/12/07 02:12:34;;;;;;;24.03;19.27;;;7.40;99.90;;;;;;4996421;28;20617;-64
2020/12/07 02:15:19;;;;;;;24.90;20.23;;;7.40;99.90;;;;;;4999702;28;20705;-64
2020/12/07 02:18:04;;;;;;;24.83;19.00;;;7.40;99.90;;;;;;5011979;28;20599;-65
2020/12/07 02:20:49;;;;;;;23.77;20.17;;;7.40;99.90;;;;;;5010982;28;21274;-65
2020/12/07 02:26:04;;;;;;;24.80;20.20;;;7.40;99.90;;;;;;4995448;23;20691;-74
2020/12/07 02:28:50;;;;;;;23.40;18.93;;;7.50;99.90;;;;;;4990887;28;20659;-74
2020/12/07 02:31:37;;;;;;;24.00;19.07;;;7.50;99.90;;;;;;4976653;28;20640;-72
2020/12/07 02:34:21;;;;;;;22.67;18.20;;;7.50;99.90;;;;;;4982369;28;21026;-73
2020/12/07 02:37:06;;;;;;;26.60;19.87;;;7.50;99.90;;;;;;4966903;28;21196;-73
2020/12/07 02:39:54;;;;;;;21.23;17.67;;;7.60;99.90;;;;;;4967423;28;20633;-73
2020/12/07 02:42:40;;;;;;;22.60;19.67;;;7.60;99.90;;;;;;4972617;28;21260;-73
2020/12/07 02:45:25;;;;;;;24.00;20.20;;;7.60;99.90;;;;;;4981822;28;20668;-73
2020/12/07 02:48:09;;;;;;;23.10;19.33;;;7.60;99.90;;;;;;4978776;28;20710;-73
2020/12/07 02:50:54;;;;;;;23.03;19.33;;;7.60;99.90;;;;;;4989476;28;20649;-73
2020/12/07 02:53:38;;;;;;;23.67;19.40;;;7.70;99.90;;;;;;4998430;28;20651;-73
2020/12/07 02:56:23;;;;;;;22.63;19.13;;;7.70;99.90;;;;;;4993890;28;20667;-74
2020/12/07 02:59:08;;;;;;;23.83;18.60;;;7.70;99.90;;;;;;4978162;28;21046;-73
2020/12/07 03:01:52;;;;;;;23.50;18.80;;;7.70;99.90;;;;;;4983920;28;21014;-73
2020/12/07 03:04:40;;;;;;;23.40;18.50;;;7.80;99.90;;;;;;4995900;28;20774;-73
2020/12/07 03:07:25;;;;;;;23.77;18.03;;;7.80;99.90;;;;;;4984210;28;21167;-73
2020/12/07 03:10:10;;;;;;;22.33;18.20;;;7.80;99.90;;;;;;4960801;28;20632;-73
2020/12/07 03:12:54;;;;;;;23.10;18.27;;;7.90;99.90;;;;;;4963816;28;21059;-73
2020/12/07 03:15:38;;;;;;;19.87;17.17;;;7.90;99.90;;;;;;4991501;28;20715;-73
2020/12/07 03:18:23;;;;;;;20.80;16.43;;;7.90;99.90;;;;;;4989911;28;20612;-73
2020/12/07 03:21:07;;;;;;;23.90;17.60;;;7.90;99.90;;;;;;4968255;28;20636;-73
2020/12/07 03:23:52;;;;;;;20.43;17.37;;;7.90;99.90;;;;;;4970615;28;20604;-73
2020/12/07 03:26:36;;;;;;;20.43;17.43;;;8.00;99.90;;;;;;4988672;28;20723;-73
2020/12/07 03:29:21;;;;;;;20.13;17.40;;;8.00;99.90;;;;;;4965343;28;21161;-73
2020/12/07 03:32:06;;;;;;;21.30;17.53;;;8.00;99.90;;;;;;5001716;28;20592;-73
2020/12/07 03:34:50;;;;;;;19.13;17.13;;;8.00;99.90;;;;;;4980697;28;20695;-73
2020/12/07 03:37:35;;;;;;;21.20;17.83;;;8.00;99.90;;;;;;4980000;28;21045;-73
2020/12/07 03:40:19;;;;;;;20.37;17.37;;;8.00;99.90;;;;;;4966407;28;21227;-73
2020/12/07 03:43:04;;;;;;;19.30;15.97;;;8.00;99.90;;;;;;4980878;28;20628;-73
2020/12/07 03:45:48;;;;;;;20.53;17.50;;;8.00;99.90;;;;;;4986978;28;20647;-73
2020/12/07 03:48:32;;;;;;;19.00;16.80;;;8.10;99.90;;;;;;4966201;28;21173;-73
2020/12/07 03:51:17;;;;;;;20.50;17.03;;;8.10;99.90;;;;;;4965326;28;20692;-73
2020/12/07 03:54:01;;;;;;;18.87;16.63;;;8.10;99.90;;;;;;4975675;28;20657;-73
2020/12/07 03:56:48;;;;;;;20.17;17.00;;;8.10;99.90;;;;;;4958426;28;20621;-73
2020/12/07 03:59:32;;;;;;;19.00;15.80;;;8.10;99.90;;;;;;4968301;28;20632;-73
2020/12/07 04:02:17;;;;;;;20.07;17.17;;;8.10;99.90;;;;;;4976150;28;20639;-73
2020/12/07 04:05:06;;;;;;;19.60;17.10;;;8.10;99.90;;;;;;5004749;28;20647;-73
2020/12/07 04:07:51;;;;;;;19.53;16.83;;;8.10;99.90;;;;;;4972920;28;20701;-73
2020/12/07 04:10:38;;;;;;;19.00;16.30;;;8.10;99.90;;;;;;4957621;28;20648;-73
2020/12/07 04:13:23;;;;;;;19.57;15.93;;;8.10;99.90;;;;;;4957715;28;20597;-73
2020/12/07 04:16:07;;;;;;;18.80;16.40;;;8.20;99.90;;;;;;4967413;28;20986;-73
2020/12/07 04:18:52;;;;;;;17.77;15.30;;;8.20;99.90;;;;;;4973294;28;20643;-73
2020/12/07 04:21:36;;;;;;;21.80;17.17;;;8.20;99.90;;;;;;4966019;28;20644;-73
2020/12/07 04:24:20;;;;;;;19.00;16.30;;;8.20;99.90;;;;;;4981831;28;20679;-73
2020/12/07 04:27:05;;;;;;;19.37;15.97;;;8.20;99.90;;;;;;4962064;28;20727;-73
2020/12/07 04:29:49;;;;;;;17.77;15.97;;;8.20;99.90;;;;;;4964320;28;20652;-73
2020/12/07 04:32:34;;;;;;;19.20;16.20;;;8.20;99.90;;;;;;4987177;28;20604;-73
2020/12/07 04:35:18;;;;;;;20.20;16.90;;;8.20;99.90;;;;;;4967637;28;20795;-73
2020/12/07 04:38:03;;;;;;;19.70;16.97;;;8.20;99.90;;;;;;4969228;28;20616;-73
2020/12/07 04:40:48;;;;;;;17.77;15.90;;;8.20;99.90;;;;;;4959889;28;20995;-73
2020/12/07 04:43:33;;;;;;;18.37;16.10;;;8.20;99.90;;;;;;4977140;28;20616;-73
2020/12/07 04:46:18;;;;;;;19.07;15.93;;;8.20;99.90;;;;;;4985417;28;20600;-73
2020/12/07 04:49:04;;;;;;;19.10;16.23;;;8.20;99.90;;;;;;4966149;28;20663;-73
2020/12/07 04:51:49;;;;;;;20.03;16.80;;;8.20;99.90;;;;;;4974083;28;20635;-73
2020/12/07 04:54:38;;;;;;;19.10;15.87;;;8.30;99.90;;;;;;4962426;28;21194;-73
2020/12/07 04:57:23;;;;;;;17.93;16.13;;;8.30;99.90;;;;;;4963660;28;20627;-73
2020/12/07 05:00:07;;;;;;;20.23;16.77;;;8.30;99.90;;;;;;4981342;28;20716;-73
2020/12/07 05:02:56;;;;;;;19.23;16.80;;;8.30;99.90;;;;;;4990072;28;20581;-73
2020/12/07 05:05:40;;;;;;;18.90;15.17;;;8.30;99.90;;;;;;4994429;28;20708;-73
2020/12/07 05:08:25;;;;;;;20.77;16.40;;;8.30;99.90;;;;;;4982380;28;20746;-73
2020/12/07 05:11:10;;;;;;;16.80;15.00;;;8.40;99.90;;;;;;4981139;28;20690;-74
2020/12/07 05:14:10;;;;;;;18.40;16.40;;;8.30;99.90;;;;;;4994843;28;20624;-74
2020/12/07 05:16:54;;;;;;;18.27;16.17;;;8.30;99.90;;;;;;4972094;28;20622;-73
2020/12/07 05:19:39;;;;;;;18.53;16.50;;;8.30;99.90;;;;;;4973848;28;21452;-73
2020/12/07 05:22:23;;;;;;;18.10;15.30;;;8.40;99.90;;;;;;4984868;28;20609;-73
2020/12/07 05:25:08;;;;;;;17.40;15.30;;;8.40;99.90;;;;;;4982182;28;20664;-73
2020/12/07 05:27:54;;;;;;;18.80;15.53;;;8.40;99.90;;;;;;4996891;28;20681;-73
2020/12/07 05:30:43;;;;;;;18.60;14.70;;;8.40;99.90;;;;;;4983980;28;21064;-73
2020/12/07 05:33:30;;;;;;;17.83;15.50;;;8.40;99.90;;;;;;4973905;28;20601;-73
2020/12/07 05:36:15;;;;;;;19.30;15.47;;;8.40;99.90;;;;;;4964486;28;20583;-73
2020/12/07 05:39:02;;;;;;;19.73;16.97;;;8.40;99.90;;;;;;4983973;28;20707;-73
2020/12/07 05:41:48;;;;;;;16.67;14.90;;;8.40;99.90;;;;;;4974933;28;21549;-73
2020/12/07 05:44:34;;;;;;;17.90;14.80;;;8.40;99.90;;;;;;4986422;28;20761;-73
2020/12/07 05:47:22;;;;;;;19.60;15.53;;;8.50;99.90;;;;;;4997880;28;20607;-73
2020/12/07 05:50:09;;;;;;;18.20;15.03;;;8.50;99.90;;;;;;4994539;28;20631;-73
2020/12/07 05:52:59;;;;;;;18.30;15.60;;;8.50;99.90;;;;;;4988427;28;20715;-73
2020/12/07 05:55:44;;;;;;;17.67;14.70;;;8.50;99.90;;;;;;4973881;28;20660;-73
2020/12/07 05:58:30;;;;;;;21.07;16.10;;;8.50;99.90;;;;;;4980975;28;21448;-73
2020/12/07 06:01:16;;;;;;;21.37;15.90;;;8.50;99.90;;;;;;4994806;28;20635;-73
2020/12/07 06:04:01;;;;;;;15.93;13.60;;;8.50;99.90;;;;;;4966309;28;20657;-73
2020/12/07 06:06:51;;;;;;;17.73;14.40;;;8.50;99.90;;;;;;4998006;28;21230;-74
2020/12/07 06:09:38;;;;;;;17.07;14.60;;;8.60;99.90;;;;;;4994015;28;20639;-74
2020/12/07 06:12:36;;;;;;;17.50;14.00;;;8.60;99.90;;;;;;4969691;28;20648;-74
2020/12/07 06:15:21;;;;;;;17.30;14.30;;;8.60;99.90;;;;;;4976272;28;20730;-73
2020/12/07 06:18:05;;;;;;;17.07;14.03;;;8.60;99.90;;;;;;4970349;28;20608;-74
2020/12/07 06:21:17;;;;;;;17.07;15.23;;;8.70;99.90;;;;;;4982310;28;20642;-73
2020/12/07 06:24:01;;;;;;;15.27;13.70;;;8.70;99.90;;;;;;4980242;28;21032;-73
2020/12/07 06:27:06;;;;;;;16.20;13.57;;;8.70;99.90;;;;;;4982440;28;20576;-74
2020/12/07 06:30:20;;;;;;;16.43;13.80;;;8.70;99.90;;;;;;4978132;28;20806;-73
2020/12/07 06:33:09;;;;;;;17.33;13.43;;;8.70;99.90;;;;;;4975570;28;20629;-72
2020/12/07 06:35:54;;;;;;;17.13;14.53;;;8.70;99.90;;;;;;4967350;28;21230;-73
2020/12/07 06:38:43;;;;;;;16.47;14.67;;;8.70;99.90;;;;;;4966472;28;20732;-73
2020/12/07 06:41:35;;;;;;;18.20;14.90;;;8.70;99.90;;;;;;4978427;28;20739;-73
2020/12/07 06:44:24;;;;;;;18.30;16.40;;;8.80;99.90;;;;;;4986685;28;20771;-73
2020/12/07 06:47:13;;;;;;;18.40;16.40;;;8.90;99.90;;;;;;4974940;28;20206;-73
2020/12/07 06:50:11;;;;;;;15.90;14.20;;;8.90;99.90;;;;;;4991014;28;20724;-73
2020/12/07 06:52:58;;;;;;;17.57;14.53;;;8.90;99.90;;;;;;4986798;28;20603;-73
2020/12/07 06:55:44;;;;;;;18.03;13.73;;;8.90;99.90;;;;;;4978860;28;20664;-73
2020/12/07 06:58:33;;;;;;;15.67;13.70;;;8.90;99.90;;;;;;4981350;28;21184;-73
2020/12/07 07:01:18;;;;;;;18.80;13.87;;;8.90;99.90;;;;;;4976274;28;20796;-73
2020/12/07 07:04:02;;;;;;;15.33;13.70;;;8.90;99.90;;;;;;4987025;28;21151;-72
2020/12/07 07:06:46;;;;;;;17.07;13.43;;;8.90;99.90;;;;;;4985760;28;20736;-73
2020/12/07 07:09:31;;;;;;;16.00;14.30;;;8.90;99.90;;;;;;4973137;28;21338;-72
2020/12/07 07:12:16;;;;;;;15.50;13.80;;;8.90;99.90;;;;;;4974278;28;20587;-73
2020/12/07 07:15:02;;;;;;;17.40;15.00;;;8.90;99.90;;;;;;4970541;28;20648;-73
2020/12/07 07:17:48;;;;;;;15.77;13.50;;;8.90;99.90;;;;;;4953387;28;20644;-73
2020/12/07 07:20:32;;;;;;;16.80;14.60;;;8.90;99.90;;;;;;4964546;28;20637;-73
2020/12/07 07:23:17;;;;;;;17.70;13.83;;;8.90;99.90;;;;;;4997833;28;20694;-73
2020/12/07 07:26:25;;;;;;;17.40;13.93;;;8.90;99.90;;;;;;4976177;28;20676;-73
2020/12/07 07:29:10;;;;;;;16.87;14.07;;;8.90;99.90;;;;;;4971993;28;20667;-73
2020/12/07 07:31:56;;;;;;;16.27;13.33;;;8.90;99.90;;;;;;4974981;28;20773;-73
2020/12/07 07:34:46;;;;;;;17.60;14.77;;;8.90;99.90;;;;;;4971590;28;20699;-73
2020/12/07 07:37:31;;;;;;;15.57;13.90;;;8.90;99.90;;;;;;4977403;28;20747;-73
2020/12/07 07:40:20;;;;;;;16.10;14.40;;;8.90;99.90;;;;;;5010908;28;21269;-73
2020/12/07 07:43:10;;;;;;;17.33;13.83;;;8.90;99.90;;;;;;4985375;28;20593;-73
2020/12/07 07:46:00;;;;;;;16.50;13.70;;;9.00;99.90;;;;;;4991017;28;20780;-72
2020/12/07 07:49:07;;;;;;;17.17;14.40;;;9.00;99.90;;;;;;4988606;28;20623;-72
2020/12/07 07:52:22;;;;;;;16.87;14.30;;;9.00;99.90;;;;;;4991458;28;20651;-72
2020/12/07 08:16:21;;;;;;;14.93;13.33;;;9.00;99.90;;;;;;4974566;28;20636;-72
2020/12/07 08:19:21;;;;;;;15.13;13.50;;;9.00;99.90;;;;;;4969286;28;20631;-72
2020/12/07 08:22:13;;;;;;;17.70;14.23;;;9.00;99.90;;;;;;4991235;28;20657;-72
2020/12/07 08:25:02;;;;;;;17.00;15.17;;;9.00;99.90;;;;;;5015379;22;20925;-67
2020/12/07 08:27:47;;;;;;;16.17;14.00;;;9.00;99.90;;;;;;5027861;28;20701;-65
2020/12/07 08:30:31;;;;;;;16.83;14.10;;;9.00;99.90;;;;;;5015339;28;20646;-66
2020/12/07 08:33:16;;;;;;;15.90;13.90;;;9.00;99.90;;;;;;5010107;28;20614;-67
2020/12/07 08:36:02;;;;;;;15.93;14.23;;;9.00;99.90;;;;;;5014750;28;20673;-66
2020/12/07 08:38:47;;;;;;;17.53;14.70;;;9.00;99.90;;;;;;5015608;28;20611;-66
2020/12/07 08:41:33;;;;;;;17.43;13.63;;;9.00;99.90;;;;;;5007740;28;20991;-65
2020/12/07 08:44:18;;;;;;;17.33;14.70;;;8.90;99.90;;;;;;5022208;28;20587;-65
2020/12/07 08:47:05;;;;;;;17.53;14.63;;;8.90;99.90;;;;;;5015715;28;20685;-65
2020/12/07 08:49:50;;;;;;;16.47;13.03;;;8.90;99.90;;;;;;5010126;28;21264;-65
2020/12/07 08:52:34;;;;;;;16.43;14.03;;;8.90;99.90;;;;;;5016903;28;20591;-65
2020/12/07 08:55:19;;;;;;;17.47;14.50;;;8.90;99.90;;;;;;5013987;28;21247;-66
2020/12/07 08:58:03;;;;;;;18.20;15.00;;;8.90;99.90;;;;;;5014696;28;20713;-65
2020/12/07 09:00:48;;;;;;;16.83;14.07;;;9.00;99.90;;;;;;5009220;28;20634;-66
2020/12/07 09:03:34;;;;;;;16.53;13.47;;;9.00;99.90;;;;;;5013760;28;20769;-67
2020/12/07 09:06:20;;;;;;;14.70;13.20;;;9.10;99.90;;;;;;5016189;28;21490;-66
2020/12/07 09:09:05;;;;;;;18.70;14.43;;;9.10;99.90;;;;;;5011718;28;20622;-66
2020/12/07 09:11:50;;;;;;;15.57;13.80;;;9.10;99.90;;;;;;5013722;28;20627;-66
2020/12/07 09:14:34;;;;;;;16.30;13.70;;;9.10;99.90;;;;;;5014755;28;20713;-65
2020/12/07 09:17:18;;;;;;;19.13;14.33;;;9.10;99.90;;;;;;5011825;28;20626;-66
2020/12/07 09:20:04;;;;;;;16.30;13.50;;;9.10;99.90;;;;;;5013389;28;20654;-66
2020/12/07 09:22:48;;;;;;;15.63;13.83;;;9.10;99.90;;;;;;5015338;28;20603;-66
2020/12/07 09:25:32;;;;;;;15.97;13.47;;;9.20;99.90;;;;;;5010388;28;20904;-65
2020/12/07 09:28:17;;;;;;;18.57;14.77;;;9.20;99.90;;;;;;5009576;28;21004;-66
2020/12/07 09:31:02;;;;;;;16.80;13.10;;;9.10;99.90;;;;;;5005836;28;20639;-68
2020/12/07 09:33:47;;;;;;;17.77;13.90;;;9.10;99.90;;;;;;5021270;28;20666;-68
2020/12/07 09:36:31;;;;;;;16.10;14.40;;;9.10;99.90;;;;;;5014393;28;20663;-67
2020/12/07 09:39:16;;;;;;;16.90;13.80;;;9.10;99.90;;;;;;5014241;28;20603;-66
2020/12/07 09:42:01;;;;;;;15.43;13.83;;;9.10;99.90;;;;;;5016278;28;20660;-66
2020/12/07 09:44:45;;;;;;;16.00;14.37;;;9.10;99.90;;;;;;5009864;28;21077;-66
2020/12/07 09:47:29;;;;;;;15.77;13.83;;;9.10;99.90;;;;;;5012787;28;20645;-66
2020/12/07 09:50:14;;;;;;;18.50;13.50;;;9.10;99.90;;;;;;5009973;28;20651;-67
2020/12/07 09:52:58;;;;;;;17.63;15.23;;;9.10;99.90;;;;;;5008295;28;20684;-66
2020/12/07 09:55:45;;;;;;;16.40;14.60;;;9.00;99.90;;;;;;5006419;28;20659;-67
2020/12/07 09:58:29;;;;;;;16.97;15.17;;;9.00;99.90;;;;;;5024456;28;20641;-66
2020/12/07 10:01:15;;;;;;;18.03;15.20;;;9.00;99.90;;;;;;5005597;28;20642;-66
2020/12/07 10:04:00;;;;;;;18.33;15.70;;;8.90;99.90;;;;;;5009276;28;20590;-67
2020/12/07 10:06:44;;;;;;;19.43;16.10;;;8.80;99.90;;;;;;5007320;28;20609;-67
2020/12/07 10:09:28;;;;;;;19.73;17.20;;;8.80;99.90;;;;;;5006211;28;20733;-66
2020/12/07 10:12:13;;;;;;;18.87;16.90;;;8.80;99.90;;;;;;5014803;28;21176;-66
2020/12/07 10:14:58;;;;;;;18.83;16.47;;;8.80;99.90;;;;;;5012807;28;20659;-67
2020/12/07 10:17:42;;;;;;;19.77;17.20;;;8.70;99.90;;;;;;5014215;28;20806;-66
2020/12/07 10:20:26;;;;;;;20.57;17.80;;;8.60;99.90;;;;;;5013248;28;20735;-67
2020/12/07 10:23:11;;;;;;;18.60;16.67;;;8.60;99.90;;;;;;5009630;28;20635;-67
2020/12/07 10:25:55;;;;;;;19.83;17.57;;;8.70;99.90;;;;;;5014108;28;20684;-66
2020/12/07 10:28:40;;;;;;;21.30;17.30;;;8.60;99.90;;;;;;5018564;28;21042;-66
2020/12/07 10:31:24;;;;;;;20.87;17.83;;;8.60;99.90;;;;;;5017556;28;20637;-66
2020/12/07 10:34:09;;;;;;;19.20;16.93;;;8.70;99.90;;;;;;5004441;28;20599;-66
2020/12/07 10:36:54;;;;;;;20.00;16.63;;;8.70;99.90;;;;;;5014910;28;20583;-66
2020/12/07 10:39:38;;;;;;;22.33;18.60;;;8.70;99.90;;;;;;5011186;28;20805;-69
2020/12/07 10:42:23;;;;;;;23.07;18.00;;;8.80;99.90;;;;;;5014472;28;20599;-66
2020/12/07 10:45:08;;;;;;;23.50;18.60;;;8.80;99.90;;;;;;5019459;28;20634;-66
2020/12/07 10:47:53;;;;;;;22.50;18.40;;;8.70;99.90;;;;;;5011957;28;20766;-66
2020/12/07 10:50:37;;;;;;;24.20;20.10;;;8.70;99.90;;;;;;5016433;28;20801;-67
2020/12/07 10:53:24;;;;;;;21.30;18.87;;;8.60;99.90;;;;;;5016142;28;21173;-66
2020/12/07 10:56:10;;;;;;;23.00;18.80;;;8.60;99.90;;;;;;5005313;28;21344;-68
2020/12/07 10:58:54;;;;;;;24.60;18.83;;;8.60;99.90;;;;;;5017828;28;20991;-69
2020/12/07 11:01:39;;;;;;;24.17;19.80;;;8.60;99.90;;;;;;5014574;28;20657;-66
2020/12/07 11:04:24;;;;;;;21.20;19.00;;;8.60;99.90;;;;;;5016993;28;20614;-66
2020/12/07 11:07:12;;;;;;;26.87;19.63;;;8.50;99.90;;;;;;5012901;28;20615;-66
2020/12/07 11:09:57;;;;;;;24.00;20.33;;;8.50;99.90;;;;;;5025936;28;20675;-67
2020/12/07 11:12:44;;;;;;;21.30;18.73;;;8.40;99.90;;;;;;5024302;28;20586;-67
2020/12/07 11:15:29;;;;;;;23.80;19.73;;;8.40;99.90;;;;;;5006044;28;21072;-67
2020/12/07 11:18:13;;;;;;;22.60;18.30;;;8.40;99.90;;;;;;5017222;28;20722;-67
2020/12/07 11:20:58;;;;;;;20.87;16.80;;;8.40;99.90;;;;;;5012214;28;20709;-67
2020/12/07 11:23:44;;;;;;;18.87;15.50;;;8.30;99.90;;;;;;5020775;28;20642;-67
2020/12/07 11:26:28;;;;;;;22.80;16.40;;;8.20;99.90;;;;;;5016386;28;20674;-66
2020/12/07 11:29:13;;;;;;;19.70;15.30;;;8.20;99.90;;;;;;5015840;28;21053;-66
2020/12/07 11:31:57;;;;;;;18.17;15.20;;;8.20;99.90;;;;;;5012366;28;20642;-65
2020/12/07 11:34:41;;;;;;;21.13;15.80;;;8.10;99.90;;;;;;5007010;28;20746;-66
2020/12/07 11:37:26;;;;;;;19.50;15.23;;;8.20;99.90;;;;;;5015900;28;20611;-67
2020/12/07 11:40:14;;;;;;;19.97;15.80;;;8.20;99.90;;;;;;5013358;28;20754;-67
2020/12/07 11:43:22;;;;;;;23.67;18.33;;;8.20;99.90;;;;;;5012824;28;20634;-67
2020/12/07 11:46:06;;;;;;;22.37;17.57;;;8.00;99.90;;;;;;5023004;28;20697;-67
2020/12/07 11:48:51;;;;;;;21.97;17.43;;;8.00;99.90;;;;;;5015582;28;20622;-65
2020/12/07 11:51:35;;;;;;;24.10;18.57;;;8.00;99.90;;;;;;5015716;28;20638;-67
2020/12/07 11:54:20;;;;;;;23.10;19.17;;;8.00;99.90;;;;;;5012522;28;21224;-67
2020/12/07 11:57:06;;;;;;;22.83;18.40;;;7.90;99.90;;;;;;5017922;28;20587;-67
2020/12/07 11:59:50;;;;;;;24.27;18.60;;;7.90;99.90;;;;;;5016162;28;20650;-67
2020/12/07 12:02:35;;;;;;;21.13;17.20;;;8.00;99.90;;;;;;5009481;28;20696;-67
2020/12/07 12:05:19;;;;;;;24.07;18.03;;;8.00;99.90;;;;;;5010890;28;21145;-67
2020/12/07 12:08:04;;;;;;;22.63;16.53;;;7.90;99.90;;;;;;5013881;28;20777;-68
2020/12/07 12:10:48;;;;;;;22.37;17.70;;;7.80;99.90;;;;;;5009999;28;20662;-67
2020/12/07 12:13:33;;;;;;;21.77;16.90;;;7.80;99.90;;;;;;5015694;28;20944;-67
2020/12/07 12:16:17;;;;;;;20.40;16.73;;;7.90;99.90;;;;;;5013831;28;20649;-67
2020/12/07 12:19:03;;;;;;;19.43;15.70;;;7.80;99.90;;;;;;5014906;28;20583;-67
2020/12/07 12:21:48;;;;;;;25.77;18.07;;;7.80;99.90;;;;;;5015310;28;20669;-67
2020/12/07 12:24:33;;;;;;;23.50;16.23;;;7.70;99.90;;;;;;5015546;28;20614;-68
2020/12/07 12:27:18;;;;;;;20.90;16.03;;;7.70;99.90;;;;;;5015056;28;20623;-67
2020/12/07 12:30:02;;;;;;;19.37;15.13;;;7.60;99.90;;;;;;5009681;28;20894;-66
2020/12/07 12:32:47;;;;;;;19.63;14.70;;;7.60;99.90;;;;;;5012059;28;21429;-68
2020/12/07 12:35:31;;;;;;;17.23;14.17;;;7.70;99.90;;;;;;5013026;28;21319;-67
2020/12/07 12:38:16;;;;;;;17.83;14.53;;;7.60;99.90;;;;;;5015242;28;21278;-67
2020/12/07 12:41:00;;;;;;;19.63;15.33;;;7.60;99.90;;;;;;5009397;28;20650;-67
2020/12/07 12:43:45;;;;;;;19.07;14.90;;;7.70;99.90;;;;;;5027762;28;20625;-67
2020/12/07 12:46:29;;;;;;;18.67;15.27;;;7.60;99.90;;;;;;5017433;28;20654;-68
2020/12/07 12:49:14;;;;;;;20.53;16.27;;;7.70;99.90;;;;;;5016123;28;20621;-66
2020/12/07 12:51:58;;;;;;;18.60;15.03;;;7.60;99.90;;;;;;5011429;28;21278;-66
2020/12/07 12:54:43;;;;;;;19.80;15.70;;;7.60;99.90;;;;;;5015639;28;20650;-67
2020/12/07 12:57:27;;;;;;;17.80;14.80;;;7.70;99.90;;;;;;5010694;28;20600;-69
2020/12/07 13:00:12;;;;;;;15.47;12.90;;;7.50;99.90;;;;;;5014585;28;20630;-68
2020/12/07 13:02:56;;;;;;;13.67;12.00;;;7.60;99.90;;;;;;5012270;28;20614;-66
2020/12/07 13:05:41;;;;;;;15.20;11.83;;;7.50;99.90;;;;;;5023117;28;21220;-66
2020/12/07 13:08:25;;;;;;;13.47;11.60;;;7.50;99.90;;;;;;5022896;28;21046;-66
2020/12/07 13:11:10;;;;;;;13.87;11.13;;;7.50;99.90;;;;;;5010927;28;20654;-68
2020/12/07 13:13:55;;;;;;;13.77;12.07;;;7.50;99.90;;;;;;5014280;28;20606;-67
2020/12/07 13:17:02;;;;;;;12.13;10.80;;;7.40;99.90;;;;;;5013741;28;20760;-66
2020/12/07 13:19:47;;;;;;;12.13;10.83;;;7.40;99.90;;;;;;5027277;28;20642;-69
2020/12/07 13:22:40;;;;;;;12.77;10.30;;;7.30;99.90;;;;;;5015576;28;20718;-67
2020/12/07 13:25:35;;;;;;;13.30;11.90;;;7.40;99.90;;;;;;5024014;28;20733;-66
2020/12/07 13:28:20;;;;;;;13.30;11.53;;;7.40;99.90;;;;;;5028485;28;21338;-68
2020/12/07 13:31:04;;;;;;;12.37;10.70;;;7.50;99.90;;;;;;5008707;28;20634;-67
2020/12/07 13:33:49;;;;;;;11.10;8.80;;;7.40;99.90;;;;;;5007689;28;20683;-68
2020/12/07 13:36:34;;;;;;;9.23;8.30;;;7.50;99.90;;;;;;5011851;28;20670;-67
2020/12/07 13:39:18;;;;;;;9.63;8.73;;;7.30;99.90;;;;;;5009658;28;20603;-67
2020/12/07 13:42:03;;;;;;;9.00;8.03;;;7.30;99.90;;;;;;5012304;28;20602;-66
2020/12/07 13:44:48;;;;;;;8.60;7.70;;;7.30;99.90;;;;;;5006660;28;20643;-67
2020/12/07 13:47:32;;;;;;;9.13;8.30;;;7.30;99.90;;;;;;5009726;28;20685;-67
2020/12/07 13:50:17;;;;;;;9.67;8.70;;;7.30;99.90;;;;;;5004219;28;20651;-67
2020/12/07 13:53:02;;;;;;;8.60;7.80;;;7.20;99.90;;;;;;5009346;28;20591;-66
2020/12/07 13:55:46;;;;;;;8.93;8.13;;;7.30;99.90;;;;;;5021862;28;20646;-67
2020/12/07 13:58:30;;;;;;;9.00;8.13;;;7.40;99.90;;;;;;5016008;28;20626;-66
2020/12/07 14:01:15;;;;;;;9.90;8.93;;;7.30;99.90;;;;;;5013546;28;20649;-67
2020/12/07 14:04:12;;;;;;;8.67;7.77;;;7.40;99.90;;;;;;5015069;28;20765;-68
2020/12/07 14:06:57;;;;;;;9.20;8.30;;;7.40;99.90;;;;;;5024657;28;20595;-68
2020/12/07 14:09:42;;;;;;;8.80;7.90;;;7.40;99.90;;;;;;5012528;28;20695;-67
2020/12/07 14:12:27;;;;;;;9.83;8.93;;;7.40;99.90;;;;;;5005231;28;20634;-66
2020/12/07 14:15:12;;;;;;;10.20;9.20;;;7.30;99.90;;;;;;5009570;28;20676;-68
2020/12/07 14:18:07;;;;;;;10.00;9.10;;;7.30;99.90;;;;;;5010639;28;20615;-68
2020/12/07 14:23:56;;;;;;;10.47;9.50;;;7.40;99.90;;;;;;5018808;28;21034;-67
2020/12/07 14:27:04;;;;;;;10.17;9.27;;;7.30;99.90;;;;;;5026555;23;20691;-73
2020/12/07 14:42:02;;;;;;;9.27;8.37;;;7.40;99.90;;;;;;4996031;28;20658;-71
2020/12/07 14:44:49;;;;;;;10.10;9.10;;;7.30;99.90;;;;;;4988085;28;20727;-71
2020/12/07 14:47:42;;;;;;;9.93;9.00;;;7.30;99.90;;;;;;4990453;28;20740;-72
2020/12/07 14:50:32;;;;;;;10.80;9.70;;;7.30;99.90;;;;;;4993643;28;20663;-71
2020/12/07 14:53:25;;;;;;;9.70;8.80;;;7.40;99.90;;;;;;4981838;28;20636;-73